createdAt,value
2019-02-05T00:02:12.732Z,18.62
2019-02-05T00:04:46.613Z,20.52
2019-02-05T00:07:18.751Z,20.20
2019-02-05T00:09:51.667Z,18.75
2019-02-05T00:12:24.790Z,19.50
2019-02-05T00:14:57.473Z,19.95
2019-02-05T00:17:29.472Z,16.70
2019-02-05T00:20:02.978Z,20.62
2019-02-05T00:22:35.651Z,18.30
2019-02-05T00:25:08.814Z,19.85
2019-02-05T00:27:40.571Z,21.07
2019-02-05T00:30:13.091Z,19.00
2019-02-05T00:32:46.571Z,18.60
2019-02-05T00:35:20.094Z,19.65
2019-02-05T00:37:52.290Z,21.50
2019-02-05T00:40:24.498Z,20.00
2019-02-05T00:42:57.133Z,19.23
2019-02-05T00:45:30.431Z,17.25
2019-02-05T00:48:03.013Z,18.75
2019-02-05T00:50:34.831Z,15.65
2019-02-05T00:53:07.631Z,16.37
2019-02-05T00:55:39.814Z,15.40
2019-02-05T00:58:13.072Z,18.00
2019-02-05T01:00:46.112Z,18.37
2019-02-05T01:03:18.073Z,16.20
2019-02-05T01:05:51.011Z,17.15
2019-02-05T01:08:24.171Z,18.98
2019-02-05T01:10:57.472Z,19.67
2019-02-05T01:13:29.892Z,16.60
2019-02-05T01:16:03.313Z,19.17
2019-02-05T01:18:35.811Z,17.27
2019-02-05T01:21:08.771Z,18.23
2019-02-05T01:23:41.952Z,21.00
2019-02-05T01:26:14.191Z,21.25
2019-02-05T01:28:50.862Z,20.08
2019-02-05T01:31:23.608Z,20.57
2019-02-05T01:33:56.070Z,18.75
2019-02-05T01:36:28.491Z,16.05
2019-02-05T01:39:00.995Z,16.25
2019-02-05T01:41:34.552Z,16.85
2019-02-05T01:44:07.067Z,16.97
2019-02-05T01:46:39.386Z,14.85
2019-02-05T01:49:12.565Z,15.20
2019-02-05T01:51:44.667Z,17.98
2019-02-05T01:54:17.566Z,18.92
2019-02-05T01:56:50.086Z,17.98
2019-02-05T01:59:23.387Z,16.27
2019-02-05T02:01:55.511Z,13.88
2019-02-05T02:04:27.766Z,14.70
2019-02-05T02:07:00.346Z,14.95
2019-02-05T02:09:32.607Z,14.45
2019-02-05T02:12:05.725Z,16.42
2019-02-05T02:14:39.326Z,17.70
2019-02-05T02:17:12.966Z,16.95
2019-02-05T02:19:46.026Z,15.30
2019-02-05T02:22:18.746Z,15.43
2019-02-05T02:24:51.506Z,14.90
2019-02-05T02:27:23.766Z,14.55
2019-02-05T02:29:56.865Z,15.05
2019-02-05T02:32:29.649Z,16.52
2019-02-05T02:35:02.546Z,14.25
2019-02-05T02:37:35.379Z,16.48
2019-02-05T02:40:08.947Z,15.30
2019-02-05T02:42:41.787Z,17.37
2019-02-05T02:45:15.166Z,15.40
2019-02-05T02:47:48.446Z,18.77
2019-02-05T02:50:21.955Z,27.90
2019-02-05T02:52:55.007Z,16.23
2019-02-05T02:55:27.268Z,19.87
2019-02-05T02:58:00.086Z,16.87
2019-02-05T03:00:32.538Z,16.23
2019-02-05T03:03:04.726Z,18.17
2019-02-05T03:05:38.335Z,15.15
2019-02-05T03:08:11.425Z,13.00
2019-02-05T03:10:43.809Z,15.15
2019-02-05T03:13:16.407Z,14.80
2019-02-05T03:15:48.906Z,13.13
2019-02-05T03:18:21.466Z,14.05
2019-02-05T03:20:53.690Z,17.73
2019-02-05T03:23:26.625Z,15.32
2019-02-05T03:25:58.930Z,14.60
2019-02-05T03:28:31.972Z,19.57
2019-02-05T03:31:04.778Z,23.95
2019-02-05T03:33:38.877Z,15.03
2019-02-05T03:36:12.328Z,15.48
2019-02-05T03:38:44.986Z,19.00
2019-02-05T03:41:17.468Z,18.40
2019-02-05T03:43:50.806Z,17.00
2019-02-05T03:46:23.206Z,17.77
2019-02-05T03:48:56.946Z,20.43
2019-02-05T03:52:05.706Z,17.60
2019-02-05T03:55:22.005Z,18.32
2019-02-05T03:58:16.286Z,16.95
2019-02-05T04:01:40.907Z,15.53
2019-02-05T04:05:07.785Z,15.80
2019-02-05T04:08:04.667Z,16.97
2019-02-05T04:11:21.006Z,17.90
2019-02-05T04:14:41.465Z,15.10
2019-02-05T04:17:55.247Z,20.02
2019-02-05T04:21:09.048Z,18.17
2019-02-05T04:24:16.066Z,19.10
2019-02-05T04:27:23.066Z,17.92
2019-02-05T04:30:06.907Z,20.80
2019-02-05T04:33:06.885Z,17.67
2019-02-05T04:36:10.966Z,21.70
2019-02-05T04:39:32.985Z,19.57
2019-02-05T04:42:45.447Z,24.47
2019-02-05T04:45:54.906Z,26.90
2019-02-05T04:49:09.987Z,25.80
2019-02-05T04:52:05.306Z,25.05
2019-02-05T04:55:00.393Z,28.98
2019-02-05T04:58:13.868Z,25.05
2019-02-05T05:01:24.425Z,27.05
2019-02-05T05:04:47.926Z,24.45
2019-02-05T05:07:47.687Z,25.43
2019-02-05T05:10:19.746Z,22.80
2019-02-05T05:12:52.208Z,19.98
2019-02-05T05:15:25.265Z,20.30
2019-02-05T05:17:58.247Z,16.55
2019-02-05T05:20:31.845Z,18.65
2019-02-05T05:23:04.726Z,14.90
2019-02-05T05:25:37.789Z,15.98
2019-02-05T05:28:10.751Z,15.75
2019-02-05T05:30:43.705Z,11.73
2019-02-05T05:33:17.306Z,10.90
2019-02-05T05:35:51.409Z,12.50
2019-02-05T05:38:24.727Z,13.50
2019-02-05T05:40:56.346Z,11.68
2019-02-05T05:43:29.305Z,11.85
2019-02-05T05:46:02.207Z,15.95
2019-02-05T05:48:34.726Z,16.82
2019-02-05T05:51:06.986Z,18.02
2019-02-05T05:53:39.918Z,20.88
2019-02-05T05:56:12.127Z,18.10
2019-02-05T05:58:44.727Z,19.77
2019-02-05T06:01:17.146Z,19.70
2019-02-05T06:03:49.690Z,22.10
2019-02-05T06:06:22.386Z,21.48
2019-02-05T06:08:54.906Z,20.62
2019-02-05T06:11:27.389Z,19.80
2019-02-05T06:14:00.186Z,20.95
2019-02-05T06:16:33.086Z,21.02
2019-02-05T06:19:06.926Z,30.82
2019-02-05T06:21:39.826Z,22.93
2019-02-05T06:24:12.006Z,20.23
2019-02-05T06:26:44.307Z,18.02
2019-02-05T06:29:16.447Z,14.70
2019-02-05T06:31:49.166Z,15.75
2019-02-05T06:34:22.368Z,12.78
2019-02-05T06:36:55.552Z,11.35
2019-02-05T06:39:28.251Z,13.80
2019-02-05T06:42:00.927Z,13.62
2019-02-05T06:44:33.887Z,11.35
2019-02-05T06:47:07.326Z,11.35
2019-02-05T06:49:39.966Z,12.20
2019-02-05T06:52:12.186Z,13.30
2019-02-05T06:54:45.205Z,13.40
2019-02-05T06:57:18.304Z,13.58
2019-02-05T06:59:51.244Z,13.50
2019-02-05T07:02:23.645Z,15.58
2019-02-05T07:04:56.505Z,16.62
2019-02-05T07:07:29.565Z,18.87
2019-02-05T07:10:02.904Z,14.75
2019-02-05T07:12:35.104Z,14.50
2019-02-05T07:15:08.345Z,18.27
2019-02-05T07:17:49.191Z,17.52
2019-02-05T07:20:16.385Z,14.70
2019-02-05T07:22:50.026Z,13.83
2019-02-05T07:25:22.467Z,16.30
2019-02-05T07:27:56.125Z,19.77
2019-02-05T07:30:29.404Z,22.77
2019-02-05T07:33:03.007Z,27.37
2019-02-05T07:35:34.965Z,23.73
2019-02-05T07:38:07.346Z,30.02
2019-02-05T07:40:40.485Z,25.68
2019-02-05T07:43:12.725Z,27.40
2019-02-05T07:45:45.569Z,28.30
2019-02-05T07:48:18.764Z,32.67
2019-02-05T07:50:52.084Z,29.98
2019-02-05T07:53:24.765Z,30.23
2019-02-05T07:55:57.526Z,27.27
2019-02-05T07:58:30.304Z,25.02
2019-02-05T08:01:02.900Z,26.17
2019-02-05T08:03:36.266Z,29.40
2019-02-05T08:06:08.885Z,25.85
2019-02-05T08:08:42.025Z,28.12
2019-02-05T08:11:15.805Z,27.65
2019-02-05T08:13:48.865Z,29.95
2019-02-05T08:16:21.726Z,26.97
2019-02-05T08:18:54.526Z,24.60
2019-02-05T08:21:27.066Z,24.43
2019-02-05T08:23:58.887Z,25.60
2019-02-05T08:26:31.645Z,22.20
2019-02-05T08:29:05.124Z,28.80
2019-02-05T08:31:38.686Z,29.90
2019-02-05T08:34:11.066Z,27.93
2019-02-05T08:36:43.365Z,29.50
2019-02-05T08:39:17.969Z,24.45
2019-02-05T08:41:50.767Z,25.12
2019-02-05T08:44:23.384Z,24.50
2019-02-05T08:46:56.178Z,25.88
2019-02-05T08:49:29.285Z,24.52
2019-02-05T08:52:02.103Z,25.40
2019-02-05T08:54:34.246Z,26.87
2019-02-05T08:57:07.444Z,30.43
2019-02-05T08:59:40.264Z,27.67
2019-02-05T09:02:12.945Z,29.12
2019-02-05T09:04:45.403Z,27.82
2019-02-05T09:07:18.449Z,30.40
2019-02-05T09:09:50.705Z,26.42
2019-02-05T09:12:24.299Z,24.65
2019-02-05T09:14:57.093Z,25.57
2019-02-05T09:17:29.414Z,29.10
2019-02-05T09:20:02.455Z,30.00
2019-02-05T09:22:35.636Z,26.68
2019-02-05T09:25:07.903Z,46.20
2019-02-05T09:27:40.600Z,33.78
2019-02-05T09:30:18.110Z,33.65
2019-02-05T09:32:51.306Z,31.17
2019-02-05T09:35:23.611Z,32.25
2019-02-05T09:37:57.849Z,32.08
2019-02-05T09:40:32.579Z,34.35
2019-02-05T09:43:04.993Z,31.30
2019-02-05T09:45:38.531Z,33.23
2019-02-05T09:48:12.311Z,32.05
2019-02-05T09:50:45.307Z,30.12
2019-02-05T09:53:18.071Z,35.50
2019-02-05T09:55:50.894Z,30.85
2019-02-05T09:58:24.191Z,32.35
2019-02-05T10:00:59.601Z,38.88
2019-02-05T10:03:30.671Z,32.17
2019-02-05T10:06:03.751Z,33.25
2019-02-05T10:08:34.991Z,33.40
2019-02-05T10:11:08.171Z,33.08
2019-02-05T10:13:40.991Z,27.55
2019-02-05T10:16:14.573Z,33.23
2019-02-05T10:18:46.873Z,32.63
2019-02-05T10:21:19.875Z,33.53
2019-02-05T10:23:53.058Z,28.55
2019-02-05T10:26:26.411Z,28.30
2019-02-05T10:28:59.571Z,28.98
2019-02-05T10:31:32.791Z,29.18
2019-02-05T10:34:05.312Z,32.95
2019-02-05T10:36:38.651Z,36.68
2019-02-05T10:39:13.492Z,31.00
2019-02-05T10:41:46.210Z,27.58
2019-02-05T10:44:18.930Z,30.57
2019-02-05T10:46:51.951Z,30.05
2019-02-05T10:49:24.994Z,29.82
2019-02-05T10:51:57.411Z,31.00
2019-02-05T10:54:29.871Z,27.27
2019-02-05T10:57:03.331Z,26.75
2019-02-05T10:59:36.071Z,30.20
2019-02-05T11:02:08.732Z,27.25
2019-02-05T11:04:41.891Z,25.35
2019-02-05T11:07:14.351Z,30.17
2019-02-05T11:09:47.653Z,27.10
2019-02-05T11:12:20.495Z,30.05
2019-02-05T11:14:53.451Z,24.07
2019-02-05T11:17:27.332Z,28.23
2019-02-05T11:20:00.031Z,27.80
2019-02-05T11:22:32.372Z,25.27
2019-02-05T11:25:05.274Z,27.70
2019-02-05T11:27:38.210Z,27.77
2019-02-05T11:30:20.425Z,25.62
2019-02-05T11:32:53.091Z,25.97
2019-02-05T11:35:25.713Z,27.95
2019-02-05T11:37:58.713Z,23.40
2019-02-05T11:40:33.783Z,22.02
2019-02-05T11:43:06.272Z,28.90
2019-02-05T11:45:38.534Z,28.20
2019-02-05T11:48:14.995Z,28.47
2019-02-05T11:50:46.996Z,35.50
2019-02-05T11:53:20.335Z,22.30
2019-02-05T11:55:52.676Z,26.07
2019-02-05T11:58:25.314Z,24.98
2019-02-05T12:01:05.896Z,26.57
2019-02-05T12:03:38.537Z,26.73
2019-02-05T12:06:11.656Z,26.87
2019-02-05T12:08:45.356Z,26.70
2019-02-05T12:11:18.175Z,25.65
2019-02-05T12:13:51.296Z,27.45
2019-02-05T12:16:24.719Z,26.52
2019-02-05T12:18:56.835Z,26.52
2019-02-05T12:21:29.795Z,28.32
2019-02-05T12:24:02.115Z,30.20
2019-02-05T12:26:35.164Z,29.10
2019-02-05T12:29:08.207Z,28.40
2019-02-05T12:31:40.841Z,31.70
2019-02-05T12:34:14.740Z,32.08
2019-02-05T12:36:47.801Z,29.18
2019-02-05T12:39:23.000Z,30.25
2019-02-05T12:41:55.821Z,29.95
2019-02-05T12:44:28.660Z,29.35
2019-02-05T12:47:01.020Z,29.92
2019-02-05T12:49:34.062Z,29.63
2019-02-05T12:52:07.921Z,29.70
2019-02-05T12:54:40.980Z,32.75
2019-02-05T12:57:13.298Z,31.95
2019-02-05T12:59:45.660Z,31.23
2019-02-05T13:02:18.978Z,31.57
2019-02-05T13:04:51.779Z,31.17
2019-02-05T13:07:24.483Z,33.53
2019-02-05T13:09:57.421Z,31.95
2019-02-05T13:12:30.339Z,31.25
2019-02-05T13:15:03.919Z,33.02
2019-02-05T13:17:36.079Z,28.27
2019-02-05T13:20:10.939Z,30.50
2019-02-05T13:22:42.541Z,31.57
2019-02-05T13:25:18.060Z,32.65
2019-02-05T13:27:51.389Z,32.05
2019-02-05T13:30:25.540Z,27.80
2019-02-05T13:32:58.460Z,30.23
2019-02-05T13:35:31.819Z,31.07
2019-02-05T13:38:04.566Z,34.10
2019-02-05T13:40:37.639Z,30.72
2019-02-05T13:43:10.960Z,30.45
2019-02-05T13:45:44.300Z,31.70
2019-02-05T13:48:17.346Z,29.85
2019-02-05T13:50:50.262Z,31.10
2019-02-05T13:53:23.084Z,32.78
2019-02-05T13:55:55.504Z,31.62
2019-02-05T13:58:28.199Z,33.50
2019-02-05T14:01:01.286Z,30.45
2019-02-05T14:03:33.859Z,30.90
2019-02-05T14:06:06.300Z,30.77
2019-02-05T14:08:39.040Z,34.10
2019-02-05T14:11:12.079Z,33.55
2019-02-05T14:13:44.480Z,39.98
2019-02-05T14:16:18.021Z,35.08
2019-02-05T14:18:55.266Z,34.48
2019-02-05T14:21:25.600Z,35.15
2019-02-05T14:23:58.919Z,35.05
2019-02-05T14:26:31.920Z,37.13
2019-02-05T14:29:04.094Z,36.93
2019-02-05T14:31:36.960Z,36.60
2019-02-05T14:34:09.681Z,36.63
2019-02-05T14:36:42.683Z,37.83
2019-02-05T14:39:14.680Z,38.05
2019-02-05T14:41:47.707Z,37.17
2019-02-05T14:44:20.919Z,39.40
2019-02-05T14:46:53.582Z,38.98
2019-02-05T14:49:26.000Z,38.30
2019-02-05T14:51:58.215Z,42.45
2019-02-05T14:54:31.202Z,36.53
2019-02-05T14:57:06.305Z,37.67
2019-02-05T14:59:37.615Z,42.45
2019-02-05T15:02:10.093Z,42.98
2019-02-05T15:04:43.157Z,35.60
2019-02-05T15:07:15.629Z,35.70
2019-02-05T15:09:48.888Z,38.70
2019-02-05T15:12:21.632Z,40.67
2019-02-05T15:14:54.216Z,39.55
2019-02-05T15:17:26.077Z,41.80
2019-02-05T15:19:59.137Z,38.28
2019-02-05T15:22:32.476Z,35.88
2019-02-05T15:25:05.098Z,42.78
2019-02-05T15:27:36.856Z,44.20
2019-02-05T15:30:12.606Z,39.98
2019-02-05T15:33:03.742Z,39.95
2019-02-05T15:35:38.083Z,40.60
2019-02-05T15:38:10.963Z,38.25
2019-02-05T15:40:42.923Z,39.15
2019-02-05T15:43:15.642Z,35.43
2019-02-05T15:45:48.463Z,39.13
2019-02-05T15:48:21.103Z,38.45
2019-02-05T15:50:53.743Z,40.67
2019-02-05T15:53:27.183Z,40.00
2019-02-05T15:55:59.522Z,40.98
2019-02-05T15:58:32.205Z,42.88
2019-02-05T16:01:04.524Z,41.28
2019-02-05T16:03:37.181Z,38.75
2019-02-05T16:06:09.803Z,39.80
2019-02-05T16:08:42.444Z,39.58
2019-02-05T16:11:14.998Z,42.90
2019-02-05T16:13:47.383Z,43.02
2019-02-05T16:16:21.164Z,43.92
2019-02-05T16:18:54.045Z,37.78
2019-02-05T16:21:26.490Z,39.95
2019-02-05T16:23:59.704Z,40.95
2019-02-05T16:26:31.823Z,43.65
2019-02-05T16:29:06.146Z,42.67
2019-02-05T16:31:39.024Z,40.92
2019-02-05T16:34:11.766Z,41.00
2019-02-05T16:36:43.584Z,40.83
2019-02-05T16:39:15.417Z,37.55
2019-02-05T16:41:48.216Z,39.50
2019-02-05T16:44:20.915Z,43.38
2019-02-05T16:46:53.877Z,40.10
2019-02-05T16:49:25.858Z,41.77
2019-02-05T16:51:59.336Z,39.08
2019-02-05T16:54:31.976Z,39.33
2019-02-05T16:57:05.485Z,39.45
2019-02-05T16:59:37.578Z,39.35
2019-02-05T17:02:10.936Z,43.40
2019-02-05T17:04:43.995Z,40.90
2019-02-05T17:07:17.316Z,40.45
2019-02-05T17:09:50.175Z,42.67
2019-02-05T17:12:22.859Z,41.90
2019-02-05T17:14:56.196Z,39.38
2019-02-05T17:17:29.396Z,42.23
2019-02-05T17:20:02.535Z,45.23
2019-02-05T17:22:35.357Z,65.97
2019-02-05T17:25:08.916Z,43.95
2019-02-05T17:27:41.576Z,49.20
2019-02-05T17:30:16.816Z,46.25
2019-02-05T17:32:49.355Z,44.93
2019-02-05T17:35:22.117Z,43.75
2019-02-05T17:37:54.456Z,42.38
2019-02-05T17:40:27.679Z,43.87
2019-02-05T17:43:00.835Z,46.90
2019-02-05T17:45:34.255Z,43.17
2019-02-05T17:48:10.296Z,54.55
2019-02-05T17:50:42.415Z,48.05
2019-02-05T17:53:14.821Z,42.50
2019-02-05T17:55:47.495Z,43.85
2019-02-05T17:58:20.135Z,49.38
2019-02-05T18:01:00.978Z,47.00
2019-02-05T18:03:33.237Z,43.13
2019-02-05T18:06:06.697Z,43.50
2019-02-05T18:08:39.475Z,45.03
2019-02-05T18:11:12.763Z,46.92
2019-02-05T18:13:45.577Z,44.35
2019-02-05T18:16:19.375Z,46.70
2019-02-05T18:18:51.175Z,48.95
2019-02-05T18:21:23.575Z,50.35
2019-02-05T18:23:56.237Z,46.88
2019-02-05T18:26:28.316Z,48.78
2019-02-05T18:29:01.837Z,45.12
2019-02-05T18:31:35.196Z,46.63
2019-02-05T18:34:08.262Z,46.92
2019-02-05T18:36:41.115Z,48.85
2019-02-05T18:39:14.097Z,47.62
2019-02-05T18:41:47.115Z,47.43
2019-02-05T18:44:20.135Z,45.55
2019-02-05T18:46:53.435Z,46.50
2019-02-05T18:49:25.614Z,46.05
2019-02-05T18:51:58.776Z,47.90
2019-02-05T18:54:31.660Z,42.45
2019-02-05T18:57:04.315Z,42.50
2019-02-05T18:59:36.815Z,44.88
2019-02-05T19:02:09.476Z,43.68
2019-02-05T19:04:42.251Z,44.35
2019-02-05T19:07:14.536Z,40.90
2019-02-05T19:09:47.796Z,40.65
2019-02-05T19:12:20.495Z,43.40
2019-02-05T19:14:56.501Z,41.50
2019-02-05T19:17:28.977Z,41.63
2019-02-05T19:20:01.456Z,40.65
2019-02-05T19:22:34.936Z,41.83
2019-02-05T19:25:30.018Z,42.48
2019-02-05T19:28:02.456Z,40.23
2019-02-05T19:30:36.777Z,40.20
2019-02-05T19:33:09.096Z,39.85
2019-02-05T19:35:42.697Z,39.08
2019-02-05T19:38:16.237Z,40.80
2019-02-05T19:40:57.106Z,45.00
2019-02-05T19:43:23.695Z,44.63
2019-02-05T19:46:30.388Z,43.75
2019-02-05T19:49:21.435Z,51.85
2019-02-05T19:51:48.876Z,46.02
2019-02-05T19:54:22.256Z,43.20
2019-02-05T19:56:54.616Z,49.20
2019-02-05T19:59:28.296Z,43.25
2019-02-05T20:02:00.651Z,46.83
2019-02-05T20:04:33.296Z,42.10
2019-02-05T20:07:05.801Z,43.92
2019-02-05T20:09:39.115Z,39.63
2019-02-05T20:12:11.523Z,40.80
2019-02-05T20:14:44.178Z,40.83
2019-02-05T20:17:16.856Z,43.28
2019-02-05T20:19:49.159Z,41.48
2019-02-05T20:22:21.896Z,41.28
2019-02-05T20:24:55.337Z,37.98
2019-02-05T20:27:28.158Z,43.60
2019-02-05T20:30:01.479Z,44.25
2019-02-05T20:32:34.437Z,41.35
2019-02-05T20:35:07.319Z,39.30
2019-02-05T20:37:39.977Z,39.42
2019-02-05T20:40:15.264Z,37.35
2019-02-05T20:42:47.995Z,37.40
2019-02-05T20:45:20.595Z,37.40
2019-02-05T20:47:56.084Z,37.17
2019-02-05T20:50:28.576Z,35.52
2019-02-05T20:53:13.028Z,35.20
2019-02-05T20:55:36.356Z,42.53
2019-02-05T20:58:09.997Z,38.30
2019-02-05T21:00:42.956Z,38.00
2019-02-05T21:03:16.277Z,34.35
2019-02-05T21:05:47.999Z,39.88
2019-02-05T21:08:20.796Z,44.67
2019-02-05T21:10:52.737Z,44.60
2019-02-05T21:13:24.817Z,45.45
2019-02-05T21:15:58.096Z,43.28
2019-02-05T21:18:31.203Z,42.55
2019-02-05T21:21:03.335Z,43.08
2019-02-05T21:23:38.045Z,44.90
2019-02-05T21:26:10.377Z,43.75
2019-02-05T21:28:43.378Z,50.00
2019-02-05T21:31:16.836Z,49.83
2019-02-05T21:33:49.877Z,38.50
2019-02-05T21:36:22.457Z,36.63
2019-02-05T21:38:55.036Z,42.17
2019-02-05T21:41:28.418Z,48.28
2019-02-05T21:44:01.417Z,50.23
2019-02-05T21:46:33.939Z,49.67
2019-02-05T21:49:06.818Z,51.37
2019-02-05T21:51:41.287Z,50.63
2019-02-05T21:54:13.735Z,46.30
2019-02-05T21:56:46.597Z,45.25
2019-02-05T21:59:19.448Z,42.55
2019-02-05T22:01:53.004Z,45.48
2019-02-05T22:04:28.203Z,45.80
2019-02-05T22:07:01.536Z,44.42
2019-02-05T22:09:34.837Z,43.02
2019-02-05T22:12:07.915Z,46.15
2019-02-05T22:14:40.096Z,40.73
2019-02-05T22:17:13.476Z,43.40
2019-02-05T22:19:46.215Z,38.40
2019-02-05T22:22:19.778Z,39.63
2019-02-05T22:24:53.095Z,42.43
2019-02-05T22:27:27.096Z,41.77
2019-02-05T22:30:01.255Z,44.53
2019-02-05T22:32:34.715Z,42.13
2019-02-05T22:35:08.339Z,41.77
2019-02-05T22:37:41.294Z,40.40
2019-02-05T22:40:14.215Z,39.30
2019-02-05T22:42:46.916Z,42.70
2019-02-05T22:45:20.636Z,45.00
2019-02-05T22:47:53.256Z,40.25
2019-02-05T22:50:27.058Z,39.92
2019-02-05T22:53:00.155Z,40.28
2019-02-05T22:55:33.068Z,39.92
2019-02-05T22:58:05.555Z,43.17
2019-02-05T23:01:05.575Z,41.35
2019-02-05T23:03:44.415Z,40.23
2019-02-05T23:06:37.435Z,39.08
2019-02-05T23:09:28.855Z,37.20
2019-02-05T23:12:22.495Z,37.50
2019-02-05T23:14:58.416Z,36.73
2019-02-05T23:17:31.175Z,38.90
2019-02-05T23:20:03.836Z,39.15
2019-02-05T23:22:37.115Z,39.40
2019-02-05T23:25:10.697Z,40.45
2019-02-05T23:27:44.095Z,40.52
2019-02-05T23:30:23.482Z,39.48
2019-02-05T23:32:56.295Z,39.00
2019-02-05T23:35:32.420Z,39.58
2019-02-05T23:38:04.755Z,37.60
2019-02-05T23:40:37.735Z,41.73
2019-02-05T23:43:10.015Z,38.23
2019-02-05T23:45:42.375Z,38.92
2019-02-05T23:48:14.635Z,38.20
2019-02-05T23:50:47.975Z,41.18
2019-02-05T23:53:20.295Z,41.10
2019-02-05T23:55:53.396Z,39.63
2019-02-05T23:58:26.240Z,37.48
